sensor_id;sensor_type;location;lat;lon;timestamp;pressure;altitude;pressure_sealevel;temperature
63588;BMP280;49966;46.896;18.004;2023-08-12T00:01:22;100920.81;;;14.80
63588;BMP280;49966;46.896;18.004;2023-08-12T00:03:53;100939.06;;;14.77
63588;BMP280;49966;46.896;18.004;2023-08-12T00:06:22;100937.53;;;14.76
63588;BMP280;49966;46.896;18.004;2023-08-12T00:08:50;100936.75;;;14.76
63588;BMP280;49966;46.896;18.004;2023-08-12T00:11:19;100924.94;;;14.77
63588;BMP280;49966;46.896;18.004;2023-08-12T00:13:48;100942.94;;;14.80
63588;BMP280;49966;46.896;18.004;2023-08-12T00:16:16;100941.75;;;14.77
63588;BMP280;49966;46.896;18.004;2023-08-12T00:18:44;100943.22;;;14.75
63588;BMP280;49966;46.896;18.004;2023-08-12T00:21:13;100939.78;;;14.74
63588;BMP280;49966;46.896;18.004;2023-08-12T00:23:41;100944.28;;;14.70
63588;BMP280;49966;46.896;18.004;2023-08-12T00:26:11;100943.59;;;14.73
63588;BMP280;49966;46.896;18.004;2023-08-12T00:28:40;100953.84;;;14.71
63588;BMP280;49966;46.896;18.004;2023-08-12T00:31:08;100944.28;;;14.70
63588;BMP280;49966;46.896;18.004;2023-08-12T00:33:37;100941.13;;;14.65
63588;BMP280;49966;46.896;18.004;2023-08-12T00:36:05;100953.72;;;14.64
63588;BMP280;49966;46.896;18.004;2023-08-12T00:38:33;100941.50;;;14.63
63588;BMP280;49966;46.896;18.004;2023-08-12T00:41:03;100949.13;;;14.65
63588;BMP280;49966;46.896;18.004;2023-08-12T00:43:31;100943.81;;;14.65
63588;BMP280;49966;46.896;18.004;2023-08-12T00:46:01;100950.63;;;14.62
63588;BMP280;49966;46.896;18.004;2023-08-12T00:48:29;100951.38;;;14.63
63588;BMP280;49966;46.896;18.004;2023-08-12T00:50:57;100967.41;;;14.63
63588;BMP280;49966;46.896;18.004;2023-08-12T00:53:25;100932.31;;;14.61
63588;BMP280;49966;46.896;18.004;2023-08-12T00:55:53;100934.19;;;14.60
63588;BMP280;49966;46.896;18.004;2023-08-12T00:58:22;100940.53;;;14.52
63588;BMP280;49966;46.896;18.004;2023-08-12T01:00:51;100950.38;;;14.48
63588;BMP280;49966;46.896;18.004;2023-08-12T01:03:20;100925.94;;;14.46
63588;BMP280;49966;46.896;18.004;2023-08-12T01:05:49;100928.25;;;14.47
63588;BMP280;49966;46.896;18.004;2023-08-12T01:08:18;100922.50;;;14.45
63588;BMP280;49966;46.896;18.004;2023-08-12T01:10:49;100927.44;;;14.43
63588;BMP280;49966;46.896;18.004;2023-08-12T01:13:36;100923.69;;;14.48
63588;BMP280;49966;46.896;18.004;2023-08-12T01:16:08;100926.41;;;14.51
63588;BMP280;49966;46.896;18.004;2023-08-12T01:18:39;100921.38;;;14.46
63588;BMP280;49966;46.896;18.004;2023-08-12T01:21:11;100932.88;;;14.50
63588;BMP280;49966;46.896;18.004;2023-08-12T01:23:44;100923.34;;;14.49
63588;BMP280;49966;46.896;18.004;2023-08-12T01:26:13;100938.91;;;14.47
63588;BMP280;49966;46.896;18.004;2023-08-12T01:28:41;100934.66;;;14.43
63588;BMP280;49966;46.896;18.004;2023-08-12T01:31:12;100926.66;;;14.43
63588;BMP280;49966;46.896;18.004;2023-08-12T01:33:49;100925.47;;;14.40
63588;BMP280;49966;46.896;18.004;2023-08-12T01:36:19;100915.41;;;14.34
63588;BMP280;49966;46.896;18.004;2023-08-12T01:38:50;100919.22;;;14.33
63588;BMP280;49966;46.896;18.004;2023-08-12T01:41:19;100923.75;;;14.32
63588;BMP280;49966;46.896;18.004;2023-08-12T01:43:50;100923.28;;;14.26
63588;BMP280;49966;46.896;18.004;2023-08-12T01:46:18;100916.69;;;14.20
63588;BMP280;49966;46.896;18.004;2023-08-12T01:48:46;100905.66;;;14.22
63588;BMP280;49966;46.896;18.004;2023-08-12T01:51:15;100914.88;;;14.24
63588;BMP280;49966;46.896;18.004;2023-08-12T01:53:43;100922.09;;;14.24
63588;BMP280;49966;46.896;18.004;2023-08-12T01:56:12;100912.88;;;14.21
63588;BMP280;49966;46.896;18.004;2023-08-12T01:58:40;100927.00;;;14.22
63588;BMP280;49966;46.896;18.004;2023-08-12T02:03:59;100915.16;;;14.19
63588;BMP280;49966;46.896;18.004;2023-08-12T02:06:28;100912.06;;;14.17
63588;BMP280;49966;46.896;18.004;2023-08-12T02:08:56;100916.91;;;14.12
63588;BMP280;49966;46.896;18.004;2023-08-12T02:11:26;100922.22;;;14.12
63588;BMP280;49966;46.896;18.004;2023-08-12T02:13:54;100917.69;;;14.12
63588;BMP280;49966;46.896;18.004;2023-08-12T02:16:22;100919.56;;;14.12
63588;BMP280;49966;46.896;18.004;2023-08-12T02:18:51;100914.94;;;14.09
63588;BMP280;49966;46.896;18.004;2023-08-12T02:21:19;100916.34;;;14.03
63588;BMP280;49966;46.896;18.004;2023-08-12T02:23:52;100901.72;;;13.96
63588;BMP280;49966;46.896;18.004;2023-08-12T02:26:20;100905.44;;;13.92
63588;BMP280;49966;46.896;18.004;2023-08-12T02:28:50;100893.56;;;13.89
63588;BMP280;49966;46.896;18.004;2023-08-12T02:31:18;100884.06;;;13.88
63588;BMP280;49966;46.896;18.004;2023-08-12T02:33:46;100895.47;;;13.89
63588;BMP280;49966;46.896;18.004;2023-08-12T02:36:16;100893.25;;;13.91
63588;BMP280;49966;46.896;18.004;2023-08-12T02:38:44;100885.25;;;13.91
63588;BMP280;49966;46.896;18.004;2023-08-12T02:41:12;100889.03;;;13.90
63588;BMP280;49966;46.896;18.004;2023-08-12T02:43:40;100875.44;;;13.95
63588;BMP280;49966;46.896;18.004;2023-08-12T02:46:10;100882.28;;;13.96
63588;BMP280;49966;46.896;18.004;2023-08-12T02:48:39;100886.53;;;13.97
63588;BMP280;49966;46.896;18.004;2023-08-12T02:51:07;100879.22;;;13.94
63588;BMP280;49966;46.896;18.004;2023-08-12T02:53:37;100887.59;;;13.92
63588;BMP280;49966;46.896;18.004;2023-08-12T02:56:05;100891.72;;;13.90
63588;BMP280;49966;46.896;18.004;2023-08-12T02:58:33;100890.53;;;13.87
63588;BMP280;49966;46.896;18.004;2023-08-12T03:01:02;100881.03;;;13.90
63588;BMP280;49966;46.896;18.004;2023-08-12T03:03:32;100900.81;;;13.89
63588;BMP280;49966;46.896;18.004;2023-08-12T03:06:02;100899.63;;;13.86
63588;BMP280;49966;46.896;18.004;2023-08-12T03:08:32;100882.03;;;13.82
63588;BMP280;49966;46.896;18.004;2023-08-12T03:11:00;100882.38;;;13.80
63588;BMP280;49966;46.896;18.004;2023-08-12T03:13:29;100889.94;;;13.78
63588;BMP280;49966;46.896;18.004;2023-08-12T03:15:57;100883.06;;;13.77
63588;BMP280;49966;46.896;18.004;2023-08-12T03:18:26;100894.84;;;13.76
63588;BMP280;49966;46.896;18.004;2023-08-12T03:20:55;100889.44;;;13.72
63588;BMP280;49966;46.896;18.004;2023-08-12T03:23:23;100875.69;;;13.70
63588;BMP280;49966;46.896;18.004;2023-08-12T03:25:52;100882.56;;;13.71
63588;BMP280;49966;46.896;18.004;2023-08-12T03:28:20;100891.28;;;13.68
63588;BMP280;49966;46.896;18.004;2023-08-12T03:30:52;100882.34;;;13.61
63588;BMP280;49966;46.896;18.004;2023-08-12T03:33:20;100883.53;;;13.63
63588;BMP280;49966;46.896;18.004;2023-08-12T03:35:49;100861.88;;;13.65
63588;BMP280;49966;46.896;18.004;2023-08-12T03:38:18;100878.63;;;13.65
63588;BMP280;49966;46.896;18.004;2023-08-12T03:40:46;100868.69;;;13.62
63588;BMP280;49966;46.896;18.004;2023-08-12T03:43:15;100873.91;;;13.59
63588;BMP280;49966;46.896;18.004;2023-08-12T03:45:43;100872.31;;;13.54
63588;BMP280;49966;46.896;18.004;2023-08-12T03:48:12;100860.09;;;13.53
63588;BMP280;49966;46.896;18.004;2023-08-12T03:50:41;100872.22;;;13.50
63588;BMP280;49966;46.896;18.004;2023-08-12T03:53:10;100853.56;;;13.50
63588;BMP280;49966;46.896;18.004;2023-08-12T03:55:39;100856.94;;;13.47
63588;BMP280;49966;46.896;18.004;2023-08-12T03:58:07;100851.19;;;13.45
63588;BMP280;49966;46.896;18.004;2023-08-12T04:00:40;100850.06;;;13.46
63588;BMP280;49966;46.896;18.004;2023-08-12T04:03:08;100852.38;;;13.48
63588;BMP280;49966;46.896;18.004;2023-08-12T04:05:47;100841.13;;;13.55
63588;BMP280;49966;46.896;18.004;2023-08-12T04:08:22;100855.38;;;13.62
63588;BMP280;49966;46.896;18.004;2023-08-12T04:10:52;100857.75;;;13.67
63588;BMP280;49966;46.896;18.004;2023-08-12T04:13:20;100857.03;;;13.70
63588;BMP280;49966;46.896;18.004;2023-08-12T04:15:49;100856.25;;;13.70
63588;BMP280;49966;46.896;18.004;2023-08-12T04:18:20;100846.13;;;13.75
63588;BMP280;49966;46.896;18.004;2023-08-12T04:20:48;100859.09;;;13.77
63588;BMP280;49966;46.896;18.004;2023-08-12T04:23:17;100869.06;;;13.80
63588;BMP280;49966;46.896;18.004;2023-08-12T04:25:46;100882.09;;;13.85
63588;BMP280;49966;46.896;18.004;2023-08-12T04:28:16;100868.47;;;13.90
63588;BMP280;49966;46.896;18.004;2023-08-12T04:30:46;100874.28;;;13.96
63588;BMP280;49966;46.896;18.004;2023-08-12T04:33:15;100868.69;;;14.01
63588;BMP280;49966;46.896;18.004;2023-08-12T04:35:43;100875.66;;;14.06
63588;BMP280;49966;46.896;18.004;2023-08-12T04:38:13;100890.63;;;14.14
63588;BMP280;49966;46.896;18.004;2023-08-12T04:40:42;100884.31;;;14.22
63588;BMP280;49966;46.896;18.004;2023-08-12T04:43:12;100892.47;;;14.29
63588;BMP280;49966;46.896;18.004;2023-08-12T04:45:44;100903.28;;;14.36
63588;BMP280;49966;46.896;18.004;2023-08-12T04:48:13;100904.53;;;14.42
63588;BMP280;49966;46.896;18.004;2023-08-12T04:50:41;100904.28;;;14.51
63588;BMP280;49966;46.896;18.004;2023-08-12T04:53:10;100905.63;;;14.61
63588;BMP280;49966;46.896;18.004;2023-08-12T04:55:38;100909.16;;;14.68
63588;BMP280;49966;46.896;18.004;2023-08-12T04:58:06;100897.91;;;14.79
63588;BMP280;49966;46.896;18.004;2023-08-12T05:00:35;100907.63;;;14.90
63588;BMP280;49966;46.896;18.004;2023-08-12T05:03:05;100910.78;;;14.96
63588;BMP280;49966;46.896;18.004;2023-08-12T05:05:33;100896.31;;;15.00
63588;BMP280;49966;46.896;18.004;2023-08-12T05:08:02;100890.22;;;15.00
63588;BMP280;49966;46.896;18.004;2023-08-12T05:10:30;100901.38;;;15.06
63588;BMP280;49966;46.896;18.004;2023-08-12T05:12:59;100901.91;;;15.15
63588;BMP280;49966;46.896;18.004;2023-08-12T05:15:27;100908.09;;;15.22
63588;BMP280;49966;46.896;18.004;2023-08-12T05:17:55;100928.91;;;15.36
63588;BMP280;49966;46.896;18.004;2023-08-12T05:20:25;100932.53;;;15.47
63588;BMP280;49966;46.896;18.004;2023-08-12T05:22:53;100923.44;;;15.56
63588;BMP280;49966;46.896;18.004;2023-08-12T05:25:23;100913.28;;;15.65
63588;BMP280;49966;46.896;18.004;2023-08-12T05:27:52;100929.13;;;15.77
63588;BMP280;49966;46.896;18.004;2023-08-12T05:30:20;100926.97;;;15.90
63588;BMP280;49966;46.896;18.004;2023-08-12T05:32:48;100957.28;;;16.01
63588;BMP280;49966;46.896;18.004;2023-08-12T05:35:17;100956.28;;;16.13
63588;BMP280;49966;46.896;18.004;2023-08-12T05:37:46;100965.19;;;16.27
63588;BMP280;49966;46.896;18.004;2023-08-12T05:40:15;100950.38;;;16.37
63588;BMP280;49966;46.896;18.004;2023-08-12T05:42:45;100960.06;;;16.49
63588;BMP280;49966;46.896;18.004;2023-08-12T05:45:13;100945.69;;;16.64
63588;BMP280;49966;46.896;18.004;2023-08-12T05:47:42;100948.50;;;16.78
63588;BMP280;49966;46.896;18.004;2023-08-12T05:50:10;100948.59;;;16.93
63588;BMP280;49966;46.896;18.004;2023-08-12T05:52:38;100936.44;;;17.06
63588;BMP280;49966;46.896;18.004;2023-08-12T05:55:08;100942.72;;;17.24
63588;BMP280;49966;46.896;18.004;2023-08-12T05:57:37;100955.31;;;18.11
63588;BMP280;49966;46.896;18.004;2023-08-12T06:00:06;101048.50;;;20.55
63588;BMP280;49966;46.896;18.004;2023-08-12T06:02:34;101122.75;;;23.62
63588;BMP280;49966;46.896;18.004;2023-08-12T06:05:03;101161.59;;;26.43
63588;BMP280;49966;46.896;18.004;2023-08-12T06:07:31;101177.19;;;28.91
63588;BMP280;49966;46.896;18.004;2023-08-12T06:10:00;101180.56;;;30.89
63588;BMP280;49966;46.896;18.004;2023-08-12T06:12:30;101191.47;;;32.04
63588;BMP280;49966;46.896;18.004;2023-08-12T06:14:59;101184.44;;;32.64
63588;BMP280;49966;46.896;18.004;2023-08-12T06:17:28;101207.75;;;33.37
63588;BMP280;49966;46.896;18.004;2023-08-12T06:20:00;101195.13;;;34.16
63588;BMP280;49966;46.896;18.004;2023-08-12T06:22:28;101218.97;;;35.36
63588;BMP280;49966;46.896;18.004;2023-08-12T06:24:56;101220.94;;;35.47
63588;BMP280;49966;46.896;18.004;2023-08-12T06:27:25;101230.03;;;35.25
63588;BMP280;49966;46.896;18.004;2023-08-12T06:29:56;101244.06;;;35.38
63588;BMP280;49966;46.896;18.004;2023-08-12T06:32:24;101239.53;;;35.24
63588;BMP280;49966;46.896;18.004;2023-08-12T06:34:53;101231.06;;;34.88
63588;BMP280;49966;46.896;18.004;2023-08-12T06:37:21;101211.50;;;33.34
63588;BMP280;49966;46.896;18.004;2023-08-12T06:39:49;101214.81;;;33.43
63588;BMP280;49966;46.896;18.004;2023-08-12T06:42:20;101221.53;;;33.80
63588;BMP280;49966;46.896;18.004;2023-08-12T06:44:57;101224.72;;;33.30
63588;BMP280;49966;46.896;18.004;2023-08-12T06:47:28;101229.38;;;32.40
63588;BMP280;49966;46.896;18.004;2023-08-12T06:49:56;101233.88;;;31.68
63588;BMP280;49966;46.896;18.004;2023-08-12T06:52:25;101229.03;;;30.83
63588;BMP280;49966;46.896;18.004;2023-08-12T06:54:54;101222.06;;;30.11
63588;BMP280;49966;46.896;18.004;2023-08-12T06:57:26;101210.06;;;29.33
63588;BMP280;49966;46.896;18.004;2023-08-12T07:00:11;101227.72;;;28.86
63588;BMP280;49966;46.896;18.004;2023-08-12T07:02:41;101212.69;;;27.74
63588;BMP280;49966;46.896;18.004;2023-08-12T07:05:10;101221.19;;;27.32
63588;BMP280;49966;46.896;18.004;2023-08-12T07:07:38;101200.66;;;26.49
63588;BMP280;49966;46.896;18.004;2023-08-12T07:10:07;101207.34;;;25.81
63588;BMP280;49966;46.896;18.004;2023-08-12T07:12:35;101192.94;;;25.55
63588;BMP280;49966;46.896;18.004;2023-08-12T07:15:10;101213.59;;;25.52
63588;BMP280;49966;46.896;18.004;2023-08-12T07:17:43;101195.44;;;25.49
63588;BMP280;49966;46.896;18.004;2023-08-12T07:20:13;101193.91;;;25.03
63588;BMP280;49966;46.896;18.004;2023-08-12T07:22:41;101185.34;;;24.88
63588;BMP280;49966;46.896;18.004;2023-08-12T07:25:09;101182.06;;;24.97
63588;BMP280;49966;46.896;18.004;2023-08-12T07:27:38;101184.78;;;24.64
63588;BMP280;49966;46.896;18.004;2023-08-12T07:30:07;101176.31;;;24.62
63588;BMP280;49966;46.896;18.004;2023-08-12T07:32:39;101186.03;;;24.60
63588;BMP280;49966;46.896;18.004;2023-08-12T07:35:09;101179.47;;;24.61
63588;BMP280;49966;46.896;18.004;2023-08-12T07:37:37;101178.25;;;24.62
63588;BMP280;49966;46.896;18.004;2023-08-12T07:40:07;101189.50;;;24.60
63588;BMP280;49966;46.896;18.004;2023-08-12T07:42:35;101181.06;;;24.75
63588;BMP280;49966;46.896;18.004;2023-08-12T07:45:08;101195.53;;;24.84
63588;BMP280;49966;46.896;18.004;2023-08-12T07:47:37;101175.03;;;24.83
63588;BMP280;49966;46.896;18.004;2023-08-12T07:50:08;101184.63;;;24.72
63588;BMP280;49966;46.896;18.004;2023-08-12T07:52:37;101172.94;;;24.58
63588;BMP280;49966;46.896;18.004;2023-08-12T07:55:06;101172.91;;;24.42
63588;BMP280;49966;46.896;18.004;2023-08-12T07:57:34;101188.75;;;24.44
63588;BMP280;49966;46.896;18.004;2023-08-12T08:00:03;101176.38;;;24.75
63588;BMP280;49966;46.896;18.004;2023-08-12T08:02:32;101175.13;;;24.63
63588;BMP280;49966;46.896;18.004;2023-08-12T08:05:00;101179.69;;;24.66
63588;BMP280;49966;46.896;18.004;2023-08-12T08:07:31;101178.00;;;24.89
63588;BMP280;49966;46.896;18.004;2023-08-12T08:09:59;101188.78;;;24.76
63588;BMP280;49966;46.896;18.004;2023-08-12T08:12:27;101173.19;;;24.80
63588;BMP280;49966;46.896;18.004;2023-08-12T08:14:56;101181.06;;;24.75
63588;BMP280;49966;46.896;18.004;2023-08-12T08:17:24;101172.00;;;24.65
63588;BMP280;49966;46.896;18.004;2023-08-12T08:19:52;101161.63;;;24.92
63588;BMP280;49966;46.896;18.004;2023-08-12T08:22:21;101175.50;;;25.11
63588;BMP280;49966;46.896;18.004;2023-08-12T08:24:50;101174.63;;;25.14
63588;BMP280;49966;46.896;18.004;2023-08-12T08:27:18;101182.75;;;25.30
63588;BMP280;49966;46.896;18.004;2023-08-12T08:29:47;101177.50;;;25.23
63588;BMP280;49966;46.896;18.004;2023-08-12T08:32:15;101179.34;;;25.26
63588;BMP280;49966;46.896;18.004;2023-08-12T08:34:44;101171.28;;;24.93
63588;BMP280;49966;46.896;18.004;2023-08-12T08:37:12;101188.47;;;25.19
63588;BMP280;49966;46.896;18.004;2023-08-12T08:39:41;101176.06;;;25.35
63588;BMP280;49966;46.896;18.004;2023-08-12T08:42:11;101168.22;;;25.08
63588;BMP280;49966;46.896;18.004;2023-08-12T08:44:41;101173.22;;;25.09
63588;BMP280;49966;46.896;18.004;2023-08-12T08:47:10;101183.28;;;25.09
63588;BMP280;49966;46.896;18.004;2023-08-12T08:49:41;101172.19;;;25.03
63588;BMP280;49966;46.896;18.004;2023-08-12T08:52:09;101187.66;;;25.35
63588;BMP280;49966;46.896;18.004;2023-08-12T08:54:39;101177.22;;;25.63
63588;BMP280;49966;46.896;18.004;2023-08-12T08:57:08;101179.50;;;25.77
63588;BMP280;49966;46.896;18.004;2023-08-12T08:59:48;101178.56;;;25.83
63588;BMP280;49966;46.896;18.004;2023-08-12T09:02:24;101175.84;;;25.96
63588;BMP280;49966;46.896;18.004;2023-08-12T09:04:53;101178.38;;;26.03
63588;BMP280;49966;46.896;18.004;2023-08-12T09:07:23;101177.81;;;26.08
63588;BMP280;49966;46.896;18.004;2023-08-12T09:09:52;101181.28;;;26.09
63588;BMP280;49966;46.896;18.004;2023-08-12T09:12:21;101172.47;;;26.05
63588;BMP280;49966;46.896;18.004;2023-08-12T09:14:51;101172.69;;;26.10
63588;BMP280;49966;46.896;18.004;2023-08-12T09:17:20;101181.22;;;26.12
63588;BMP280;49966;46.896;18.004;2023-08-12T09:19:49;101170.19;;;26.41
63588;BMP280;49966;46.896;18.004;2023-08-12T09:22:18;101182.56;;;26.55
63588;BMP280;49966;46.896;18.004;2023-08-12T09:24:46;101161.81;;;25.98
63588;BMP280;49966;46.896;18.004;2023-08-12T09:27:18;101156.47;;;25.94
63588;BMP280;49966;46.896;18.004;2023-08-12T09:29:46;101164.75;;;25.91
63588;BMP280;49966;46.896;18.004;2023-08-12T09:32:18;101153.78;;;26.07
63588;BMP280;49966;46.896;18.004;2023-08-12T09:34:47;101162.81;;;26.17
63588;BMP280;49966;46.896;18.004;2023-08-12T09:37:15;101156.81;;;26.22
63588;BMP280;49966;46.896;18.004;2023-08-12T09:39:44;101162.44;;;26.27
63588;BMP280;49966;46.896;18.004;2023-08-12T09:42:13;101160.09;;;26.17
63588;BMP280;49966;46.896;18.004;2023-08-12T09:44:41;101160.63;;;26.37
63588;BMP280;49966;46.896;18.004;2023-08-12T09:47:10;101159.94;;;26.58
63588;BMP280;49966;46.896;18.004;2023-08-12T09:49:40;101158.69;;;26.72
63588;BMP280;49966;46.896;18.004;2023-08-12T09:52:08;101155.59;;;26.48
63588;BMP280;49966;46.896;18.004;2023-08-12T09:54:38;101145.47;;;26.49
63588;BMP280;49966;46.896;18.004;2023-08-12T09:57:08;101158.94;;;26.52
63588;BMP280;49966;46.896;18.004;2023-08-12T09:59:37;101172.34;;;26.59
63588;BMP280;49966;46.896;18.004;2023-08-12T10:02:12;101142.78;;;26.36
63588;BMP280;49966;46.896;18.004;2023-08-12T10:04:48;101146.63;;;26.00
63588;BMP280;49966;46.896;18.004;2023-08-12T10:07:19;101139.97;;;26.01
63588;BMP280;49966;46.896;18.004;2023-08-12T10:09:47;101137.53;;;26.41
63588;BMP280;49966;46.896;18.004;2023-08-12T10:15:05;101148.34;;;26.67
63588;BMP280;49966;46.896;18.004;2023-08-12T10:17:36;101146.19;;;26.62
63588;BMP280;49966;46.896;18.004;2023-08-12T10:20:13;101147.00;;;26.50
63588;BMP280;49966;46.896;18.004;2023-08-12T10:22:42;101142.78;;;26.70
63588;BMP280;49966;46.896;18.004;2023-08-12T10:25:13;101135.72;;;26.73
63588;BMP280;49966;46.896;18.004;2023-08-12T10:27:42;101133.63;;;26.77
63588;BMP280;49966;46.896;18.004;2023-08-12T10:30:13;101130.53;;;26.66
63588;BMP280;49966;46.896;18.004;2023-08-12T10:32:42;101130.28;;;26.60
63588;BMP280;49966;46.896;18.004;2023-08-12T10:35:11;101135.81;;;26.82
63588;BMP280;49966;46.896;18.004;2023-08-12T10:37:40;101131.56;;;27.03
63588;BMP280;49966;46.896;18.004;2023-08-12T10:40:20;101125.03;;;27.00
63588;BMP280;49966;46.896;18.004;2023-08-12T10:42:49;101120.09;;;27.08
63588;BMP280;49966;46.896;18.004;2023-08-12T10:45:18;101107.50;;;27.23
63588;BMP280;49966;46.896;18.004;2023-08-12T10:47:53;101116.69;;;27.48
63588;BMP280;49966;46.896;18.004;2023-08-12T10:50:44;101095.34;;;27.37
63588;BMP280;49966;46.896;18.004;2023-08-12T10:53:24;101106.38;;;27.12
63588;BMP280;49966;46.896;18.004;2023-08-12T10:55:57;101105.13;;;27.04
63588;BMP280;49966;46.896;18.004;2023-08-12T10:58:30;101104.41;;;27.12
63588;BMP280;49966;46.896;18.004;2023-08-12T11:00:58;101091.34;;;27.07
63588;BMP280;49966;46.896;18.004;2023-08-12T11:03:31;101085.91;;;27.07
63588;BMP280;49966;46.896;18.004;2023-08-12T11:06:05;101096.31;;;27.21
63588;BMP280;49966;46.896;18.004;2023-08-12T11:08:35;101087.28;;;27.34
63588;BMP280;49966;46.896;18.004;2023-08-12T11:11:19;101090.44;;;27.32
63588;BMP280;49966;46.896;18.004;2023-08-12T11:13:53;101079.81;;;27.25
63588;BMP280;49966;46.896;18.004;2023-08-12T11:16:31;101090.59;;;27.38
63588;BMP280;49966;46.896;18.004;2023-08-12T11:18:59;101091.25;;;27.42
63588;BMP280;49966;46.896;18.004;2023-08-12T11:21:36;101084.84;;;27.26
63588;BMP280;49966;46.896;18.004;2023-08-12T11:24:07;101098.31;;;27.08
63588;BMP280;49966;46.896;18.004;2023-08-12T11:26:36;101092.34;;;27.22
63588;BMP280;49966;46.896;18.004;2023-08-12T11:29:08;101089.91;;;27.15
63588;BMP280;49966;46.896;18.004;2023-08-12T11:31:37;101060.66;;;27.07
63588;BMP280;49966;46.896;18.004;2023-08-12T11:34:05;101078.44;;;27.20
63588;BMP280;49966;46.896;18.004;2023-08-12T11:36:35;101076.22;;;27.06
63588;BMP280;49966;46.896;18.004;2023-08-12T11:39:04;101066.78;;;26.98
63588;BMP280;49966;46.896;18.004;2023-08-12T11:41:33;101076.09;;;27.10
63588;BMP280;49966;46.896;18.004;2023-08-12T11:44:02;101068.91;;;27.25
63588;BMP280;49966;46.896;18.004;2023-08-12T11:46:32;101061.16;;;27.14
63588;BMP280;49966;46.896;18.004;2023-08-12T11:49:00;101066.25;;;27.12
63588;BMP280;49966;46.896;18.004;2023-08-12T11:51:29;101070.84;;;27.15
63588;BMP280;49966;46.896;18.004;2023-08-12T11:53:59;101051.34;;;27.17
63588;BMP280;49966;46.896;18.004;2023-08-12T11:56:27;101047.63;;;27.02
63588;BMP280;49966;46.896;18.004;2023-08-12T11:58:57;101036.34;;;26.90
63588;BMP280;49966;46.896;18.004;2023-08-12T12:01:26;101061.06;;;26.83
63588;BMP280;49966;46.896;18.004;2023-08-12T12:04:00;101050.25;;;26.70
63588;BMP280;49966;46.896;18.004;2023-08-12T12:06:33;101030.13;;;26.90
63588;BMP280;49966;46.896;18.004;2023-08-12T12:09:04;101032.50;;;26.79
63588;BMP280;49966;46.896;18.004;2023-08-12T12:11:33;101032.22;;;26.86
63588;BMP280;49966;46.896;18.004;2023-08-12T12:14:02;101043.56;;;26.84
63588;BMP280;49966;46.896;18.004;2023-08-12T12:16:38;101024.81;;;26.86
63588;BMP280;49966;46.896;18.004;2023-08-12T12:19:14;101033.50;;;26.94
63588;BMP280;49966;46.896;18.004;2023-08-12T12:21:45;101034.13;;;26.98
63588;BMP280;49966;46.896;18.004;2023-08-12T12:24:14;101033.88;;;27.05
63588;BMP280;49966;46.896;18.004;2023-08-12T12:26:43;101032.44;;;27.22
63588;BMP280;49966;46.896;18.004;2023-08-12T12:29:11;101030.06;;;27.34
63588;BMP280;49966;46.896;18.004;2023-08-12T12:31:41;101024.16;;;27.35
63588;BMP280;49966;46.896;18.004;2023-08-12T12:34:09;101024.81;;;27.48
63588;BMP280;49966;46.896;18.004;2023-08-12T12:36:37;101038.31;;;27.52
63588;BMP280;49966;46.896;18.004;2023-08-12T12:39:07;101026.38;;;27.49
63588;BMP280;49966;46.896;18.004;2023-08-12T12:41:36;101017.13;;;27.56
63588;BMP280;49966;46.896;18.004;2023-08-12T12:44:05;101025.13;;;27.50
63588;BMP280;49966;46.896;18.004;2023-08-12T12:46:33;101031.03;;;27.49
63588;BMP280;49966;46.896;18.004;2023-08-12T12:49:01;101013.97;;;27.67
63588;BMP280;49966;46.896;18.004;2023-08-12T12:51:30;101009.13;;;27.62
63588;BMP280;49966;46.896;18.004;2023-08-12T12:53:58;101005.03;;;27.57
63588;BMP280;49966;46.896;18.004;2023-08-12T12:56:26;101004.19;;;27.87
63588;BMP280;49966;46.896;18.004;2023-08-12T12:58:56;101006.16;;;28.14
63588;BMP280;49966;46.896;18.004;2023-08-12T13:01:24;101004.78;;;27.92
63588;BMP280;49966;46.896;18.004;2023-08-12T13:03:52;101007.81;;;27.94
63588;BMP280;49966;46.896;18.004;2023-08-12T13:06:21;100997.84;;;28.00
63588;BMP280;49966;46.896;18.004;2023-08-12T13:08:49;100998.75;;;27.87
63588;BMP280;49966;46.896;18.004;2023-08-12T13:11:19;100985.66;;;27.64
63588;BMP280;49966;46.896;18.004;2023-08-12T13:13:47;100981.09;;;27.52
63588;BMP280;49966;46.896;18.004;2023-08-12T13:16:16;100990.69;;;27.25
63588;BMP280;49966;46.896;18.004;2023-08-12T13:18:45;100975.13;;;27.35
63588;BMP280;49966;46.896;18.004;2023-08-12T13:21:14;100983.63;;;27.37
63588;BMP280;49966;46.896;18.004;2023-08-12T13:23:45;100969.72;;;27.44
63588;BMP280;49966;46.896;18.004;2023-08-12T13:26:18;100965.00;;;27.36
63588;BMP280;49966;46.896;18.004;2023-08-12T13:28:54;100966.28;;;27.13
63588;BMP280;49966;46.896;18.004;2023-08-12T13:31:26;100967.03;;;27.13
63588;BMP280;49966;46.896;18.004;2023-08-12T13:33:54;100965.94;;;27.02
63588;BMP280;49966;46.896;18.004;2023-08-12T13:36:23;100968.34;;;26.68
63588;BMP280;49966;46.896;18.004;2023-08-12T13:38:51;100966.22;;;26.73
63588;BMP280;49966;46.896;18.004;2023-08-12T13:41:19;100950.47;;;26.67
63588;BMP280;49966;46.896;18.004;2023-08-12T13:43:47;100959.59;;;26.74
63588;BMP280;49966;46.896;18.004;2023-08-12T13:46:15;100944.47;;;26.73
63588;BMP280;49966;46.896;18.004;2023-08-12T13:48:45;100950.47;;;26.67
63588;BMP280;49966;46.896;18.004;2023-08-12T13:51:13;100960.59;;;26.67
63588;BMP280;49966;46.896;18.004;2023-08-12T13:53:41;100955.88;;;26.58
63588;BMP280;49966;46.896;18.004;2023-08-12T13:56:10;100949.47;;;26.52
63588;BMP280;49966;46.896;18.004;2023-08-12T13:58:39;100945.22;;;26.51
63588;BMP280;49966;46.896;18.004;2023-08-12T14:01:07;100930.63;;;26.36
63588;BMP280;49966;46.896;18.004;2023-08-12T14:03:37;100956.00;;;26.33